KRBG/RBG METAR and TAF weather

Enter ICAO airport designator
Station Type Date Time Source
KRBG METAR 2019/11/15 05:31 UTC NOAA

KRBG 150531Z AUTO 00000KT 9SM SCT003 07/05 A3005 RMK AO2 T00670050


Station Type Date Time Source
KRBG Decoded METAR 2019/11/15 05:31 UTC NOAA

ROSEBURG REGIONAL AIRPORT, OR, United States (KRBG) 43-14N 123-21W 154M
Nov 15, 2019 - 12:31 AM EST / 2019.11.15 0531 UTC
Wind: Calm:0
Visibility: 9 mile(s):0
Sky conditions: partly cloudy
Temperature: 44.1 F (6.7 C)
Dew Point: 41.0 F (5.0 C)
Relative Humidity: 88%
Pressure (altimeter): 30.05 in. Hg (1017 hPa)
ob: KRBG 150531Z AUTO 00000KT 9SM SCT003 07/05 A3005 RMK AO2 T00670050
cycle: 5

Station Type Date Time Source
KRBG TAF 2019/11/14 18:54 UTC NOAA

TAF KRBG 141752Z 1418/1518 00000KT 1SM BR OVC002
FM142100 VRB03KT P6SM SCT010 BKN100
FM150200 VRB03KT P6SM SCT010 BKN035
FM150600 00000KT 5SM BR BKN010

Example: see airport list